Hanamaulu, HI (96715)

3:49 PM HST on July 07, 2015 (GMT -1000)
Lihue | | Change Station
CLOSE
Current Station
Personal Weather Station
Location: Lihue, HI
Elevation: 342 ft
Nearby Weather Stations
Active Advisory: High Surf Advisory

Elev 342 ft 21.97 °N, 159.40 °W | Updated 46 minutes ago

Partly Cloudy
Partly Cloudy
81.1 °F
Feels Like 85 °F
N
7.8
Wind Variable Wind from NNE
Gusts 17.2 mph

Today
High -- | Low -- °F
--% Chance of Precip.
Yesterday
High -- | Low -- °F
Precip. -- in
5:59 AM 7:24 PM
Waning Gibbous, 59% visible
Pressure 30.01 in
Visibility 10.0 miles
Clouds Few 2500 ft
Heat Index 85 °F
Dew Point 71 °F
Humidity 72%
Rainfall -999.00 in
Snow Depth Not available.
UV 9 out of 12
Pollen Not available.
Air Quality Not available.
Flu Activity Not available.
METAR PHLI 080053Z 04017KT 10SM FEW025 29/21 A3002 RMK AO2 SLP163 T02890206

More Conditions Fewer Conditions

Pressure 30.01 in
Visibility 10.0 miles
Clouds Few 2500 ft
Heat Index 85 °F
Dew Point 71 °F
Humidity 72%
Rainfall -999.00 in
Snow Depth Not available.
UV 9 out of 12
Pollen Not available.
Air Quality Not available.
Flu Activity Not available.
METAR PHLI 080053Z 04017KT 10SM FEW025 29/21 A3002 RMK AO2 SLP163 T02890206

More Conditions Fewer Conditions

10-Day Weather Forecast

×

Almanac

Astronomy

Jul. 07, 2015 Rise Set
Actual Time
Civil Twilight
Nautical Twilight
Astronomical Twilight
Moon
Length of Visible Light
Length of Day
Tomorrow will be .
, % of the Moon is Illuminated

Today's Extremes

State Highs State Lows

Community

WunderPhotos

Upload Photos

1,836,002 photos uploaded!

WunderBlogs® & News

Nearby

Air Quality

  Air Quality AQ Index Pollutant
Not available.

Snow Depth

Station Depth Elevation

Earthquake Activity

City Distance Mag. Time & Date
Minimum magnitude displayed is 2.5.

Coastal Water Temperatures

Place Temperature

Stations

Nearby Weather Stations

Station Location Temp. Windchill Dew Point Humidity Wind Precip. Elev Updated Type
                   
High Surf Advisory
Statement as of 3:36 PM HST on July 07, 2015

... High surf advisory remains in effect until 6 PM HST
Wednesday...

A high surf advisory remains in effect until 6 PM HST Wednesday.

* Surf... 6 to 9 feet along south facing shores.

* Timing... through Wednesday.

* Impacts... moderate... expect strong breaking waves... shore
break... and strong longshore and rip currents making swimming
difficult and dangerous.

Precautionary/preparedness actions...

Beachgoers... swimmers... and surfers should heed all advice given
by ocean safety officials and exercise caution.



Foster